sensor_id;sensor_type;location;lat;lon;timestamp;temperature;humidity
49829;DHT22;35723;51.194;5.112;2023-02-15T00:15:13;5.10;99.90
49829;DHT22;35723;51.194;5.112;2023-02-15T00:17:40;4.90;99.90
49829;DHT22;35723;51.194;5.112;2023-02-15T00:20:25;4.90;99.90
49829;DHT22;35723;51.194;5.112;2023-02-15T00:22:51;5.10;99.90
49829;DHT22;35723;51.194;5.112;2023-02-15T00:25:17;5.10;99.90
49829;DHT22;35723;51.194;5.112;2023-02-15T00:27:43;5.00;99.90
49829;DHT22;35723;51.194;5.112;2023-02-15T00:30:09;4.90;99.90
49829;DHT22;35723;51.194;5.112;2023-02-15T00:32:35;4.90;99.90
49829;DHT22;35723;51.194;5.112;2023-02-15T00:35:01;5.00;99.90
49829;DHT22;35723;51.194;5.112;2023-02-15T00:37:27;4.90;99.90
49829;DHT22;35723;51.194;5.112;2023-02-15T00:39:52;4.70;99.90
49829;DHT22;35723;51.194;5.112;2023-02-15T00:45:24;4.90;99.90
49829;DHT22;35723;51.194;5.112;2023-02-15T00:47:52;4.70;99.90
49829;DHT22;35723;51.194;5.112;2023-02-15T00:50:18;4.70;99.90
49829;DHT22;35723;51.194;5.112;2023-02-15T00:52:43;4.70;99.90
49829;DHT22;35723;51.194;5.112;2023-02-15T00:55:09;4.70;99.90
49829;DHT22;35723;51.194;5.112;2023-02-15T00:57:35;4.70;99.90
49829;DHT22;35723;51.194;5.112;2023-02-15T01:00:03;4.80;99.90
49829;DHT22;35723;51.194;5.112;2023-02-15T01:02:28;4.70;99.90
49829;DHT22;35723;51.194;5.112;2023-02-15T01:04:54;4.70;99.90
49829;DHT22;35723;51.194;5.112;2023-02-15T01:07:20;4.60;99.90
49829;DHT22;35723;51.194;5.112;2023-02-15T01:09:46;4.70;99.90
49829;DHT22;35723;51.194;5.112;2023-02-15T01:12:12;4.60;99.90
49829;DHT22;35723;51.194;5.112;2023-02-15T01:14:38;4.60;99.90
49829;DHT22;35723;51.194;5.112;2023-02-15T01:17:03;4.40;99.90
49829;DHT22;35723;51.194;5.112;2023-02-15T01:19:29;4.60;99.90
49829;DHT22;35723;51.194;5.112;2023-02-15T01:21:55;4.70;99.90
49829;DHT22;35723;51.194;5.112;2023-02-15T01:24:21;4.60;99.90
49829;DHT22;35723;51.194;5.112;2023-02-15T01:26:47;4.60;99.90
49829;DHT22;35723;51.194;5.112;2023-02-15T01:29:13;4.60;99.90
49829;DHT22;35723;51.194;5.112;2023-02-15T01:31:57;4.70;99.90
49829;DHT22;35723;51.194;5.112;2023-02-15T01:34:23;4.70;99.90
49829;DHT22;35723;51.194;5.112;2023-02-15T01:36:49;4.60;99.90
49829;DHT22;35723;51.194;5.112;2023-02-15T01:39:15;4.60;99.90
49829;DHT22;35723;51.194;5.112;2023-02-15T01:41:43;4.40;99.90
49829;DHT22;35723;51.194;5.112;2023-02-15T01:47:19;4.40;99.90
49829;DHT22;35723;51.194;5.112;2023-02-15T01:49:46;4.40;99.90
49829;DHT22;35723;51.194;5.112;2023-02-15T01:52:16;4.50;99.90
49829;DHT22;35723;51.194;5.112;2023-02-15T01:55:01;4.50;99.90
49829;DHT22;35723;51.194;5.112;2023-02-15T01:57:28;4.50;99.90
49829;DHT22;35723;51.194;5.112;2023-02-15T01:59:56;4.40;99.90
49829;DHT22;35723;51.194;5.112;2023-02-15T02:02:25;4.50;99.90
49829;DHT22;35723;51.194;5.112;2023-02-15T02:04:53;4.50;99.90
49829;DHT22;35723;51.194;5.112;2023-02-15T02:07:26;4.50;99.90
49829;DHT22;35723;51.194;5.112;2023-02-15T02:09:52;4.50;99.90
49829;DHT22;35723;51.194;5.112;2023-02-15T02:12:19;4.50;99.90
49829;DHT22;35723;51.194;5.112;2023-02-15T02:14:48;4.40;99.90
49829;DHT22;35723;51.194;5.112;2023-02-15T02:17:34;4.40;99.90
49829;DHT22;35723;51.194;5.112;2023-02-15T02:23:16;4.30;99.90
49829;DHT22;35723;51.194;5.112;2023-02-15T02:25:49;4.30;99.90
49829;DHT22;35723;51.194;5.112;2023-02-15T02:36:40;4.30;99.90
49829;DHT22;35723;51.194;5.112;2023-02-15T02:42:02;4.20;99.90
49829;DHT22;35723;51.194;5.112;2023-02-15T02:44:38;4.20;99.90
49829;DHT22;35723;51.194;5.112;2023-02-15T02:47:13;4.30;99.90
49829;DHT22;35723;51.194;5.112;2023-02-15T02:49:44;4.40;99.90
49829;DHT22;35723;51.194;5.112;2023-02-15T02:52:34;4.20;99.90
49829;DHT22;35723;51.194;5.112;2023-02-15T02:55:05;4.00;99.90
49829;DHT22;35723;51.194;5.112;2023-02-15T02:57:32;4.20;99.90
49829;DHT22;35723;51.194;5.112;2023-02-15T03:00:00;4.10;99.90
49829;DHT22;35723;51.194;5.112;2023-02-15T03:02:32;3.90;99.90
49829;DHT22;35723;51.194;5.112;2023-02-15T03:05:03;4.00;99.90
49829;DHT22;35723;51.194;5.112;2023-02-15T03:07:33;4.10;99.90
49829;DHT22;35723;51.194;5.112;2023-02-15T03:10:05;4.00;99.90
49829;DHT22;35723;51.194;5.112;2023-02-15T03:12:34;4.10;99.90
49829;DHT22;35723;51.194;5.112;2023-02-15T03:15:04;4.00;99.90
49829;DHT22;35723;51.194;5.112;2023-02-15T03:17:35;3.90;99.90
49829;DHT22;35723;51.194;5.112;2023-02-15T03:20:09;3.90;99.90
49829;DHT22;35723;51.194;5.112;2023-02-15T03:23:03;4.00;99.90
49829;DHT22;35723;51.194;5.112;2023-02-15T03:25:36;3.90;99.90
49829;DHT22;35723;51.194;5.112;2023-02-15T03:28:06;4.10;99.90
49829;DHT22;35723;51.194;5.112;2023-02-15T03:30:34;3.90;99.90
49829;DHT22;35723;51.194;5.112;2023-02-15T03:33:02;3.90;99.90
49829;DHT22;35723;51.194;5.112;2023-02-15T03:35:39;3.80;99.90
49829;DHT22;35723;51.194;5.112;2023-02-15T03:38:07;3.90;99.90
49829;DHT22;35723;51.194;5.112;2023-02-15T03:40:38;3.90;99.90
49829;DHT22;35723;51.194;5.112;2023-02-15T03:49:42;3.80;99.90
49829;DHT22;35723;51.194;5.112;2023-02-15T03:52:11;3.80;99.90
49829;DHT22;35723;51.194;5.112;2023-02-15T03:54:39;3.90;99.90
49829;DHT22;35723;51.194;5.112;2023-02-15T03:57:20;3.60;99.90
49829;DHT22;35723;51.194;5.112;2023-02-15T04:00:25;3.70;99.90
49829;DHT22;35723;51.194;5.112;2023-02-15T04:05:35;3.70;99.90
49829;DHT22;35723;51.194;5.112;2023-02-15T04:08:02;3.70;99.90
49829;DHT22;35723;51.194;5.112;2023-02-15T04:10:27;3.60;99.90
49829;DHT22;35723;51.194;5.112;2023-02-15T04:13:12;3.70;99.90
49829;DHT22;35723;51.194;5.112;2023-02-15T04:15:57;3.60;99.90
49829;DHT22;35723;51.194;5.112;2023-02-15T04:18:39;3.70;99.90
49829;DHT22;35723;51.194;5.112;2023-02-15T04:21:25;3.60;99.90
49829;DHT22;35723;51.194;5.112;2023-02-15T04:24:10;3.60;99.90
49829;DHT22;35723;51.194;5.112;2023-02-15T04:26:55;3.60;99.90
49829;DHT22;35723;51.194;5.112;2023-02-15T04:29:24;3.60;99.90
49829;DHT22;35723;51.194;5.112;2023-02-15T04:31:51;3.60;99.90
49829;DHT22;35723;51.194;5.112;2023-02-15T04:34:17;3.40;99.90
49829;DHT22;35723;51.194;5.112;2023-02-15T04:36:44;3.50;99.90
49829;DHT22;35723;51.194;5.112;2023-02-15T04:39:13;3.50;99.90
49829;DHT22;35723;51.194;5.112;2023-02-15T04:41:39;3.50;99.90
49829;DHT22;35723;51.194;5.112;2023-02-15T04:44:04;3.50;99.90
49829;DHT22;35723;51.194;5.112;2023-02-15T04:46:31;3.50;99.90
49829;DHT22;35723;51.194;5.112;2023-02-15T04:48:57;3.50;99.90
49829;DHT22;35723;51.194;5.112;2023-02-15T04:51:23;3.50;99.90
49829;DHT22;35723;51.194;5.112;2023-02-15T04:53:49;3.50;99.90
49829;DHT22;35723;51.194;5.112;2023-02-15T04:56:15;3.50;99.90
49829;DHT22;35723;51.194;5.112;2023-02-15T04:58:41;3.50;99.90
49829;DHT22;35723;51.194;5.112;2023-02-15T05:01:07;3.40;99.90
49829;DHT22;35723;51.194;5.112;2023-02-15T05:03:34;3.40;99.90
49829;DHT22;35723;51.194;5.112;2023-02-15T05:06:01;3.40;99.90
49829;DHT22;35723;51.194;5.112;2023-02-15T05:08:27;3.40;99.90
49829;DHT22;35723;51.194;5.112;2023-02-15T05:10:53;3.30;99.90
49829;DHT22;35723;51.194;5.112;2023-02-15T05:13:19;3.40;99.90
49829;DHT22;35723;51.194;5.112;2023-02-15T05:15:52;3.20;99.90
49829;DHT22;35723;51.194;5.112;2023-02-15T05:18:19;3.40;99.90
49829;DHT22;35723;51.194;5.112;2023-02-15T05:20:46;3.30;99.90
49829;DHT22;35723;51.194;5.112;2023-02-15T05:23:12;3.30;99.90
49829;DHT22;35723;51.194;5.112;2023-02-15T05:25:38;3.30;99.90
49829;DHT22;35723;51.194;5.112;2023-02-15T05:28:24;3.30;99.90
49829;DHT22;35723;51.194;5.112;2023-02-15T05:31:06;3.20;99.90
49829;DHT22;35723;51.194;5.112;2023-02-15T05:33:33;3.20;99.90
49829;DHT22;35723;51.194;5.112;2023-02-15T05:36:00;3.20;99.90
49829;DHT22;35723;51.194;5.112;2023-02-15T05:38:26;3.40;99.90
49829;DHT22;35723;51.194;5.112;2023-02-15T05:40:52;3.30;99.90
49829;DHT22;35723;51.194;5.112;2023-02-15T05:43:18;3.00;99.90
49829;DHT22;35723;51.194;5.112;2023-02-15T05:45:46;3.20;99.90
49829;DHT22;35723;51.194;5.112;2023-02-15T05:48:14;3.30;99.90
49829;DHT22;35723;51.194;5.112;2023-02-15T05:54:07;3.20;99.90
49829;DHT22;35723;51.194;5.112;2023-02-15T05:56:33;3.10;99.90
49829;DHT22;35723;51.194;5.112;2023-02-15T05:58:58;3.20;99.90
49829;DHT22;35723;51.194;5.112;2023-02-15T06:04:59;3.00;99.90
49829;DHT22;35723;51.194;5.112;2023-02-15T06:07:24;3.20;99.90
49829;DHT22;35723;51.194;5.112;2023-02-15T06:09:50;3.00;99.90
49829;DHT22;35723;51.194;5.112;2023-02-15T06:15:38;3.00;99.90
49829;DHT22;35723;51.194;5.112;2023-02-15T06:21:27;3.10;99.90
49829;DHT22;35723;51.194;5.112;2023-02-15T06:27:20;2.80;99.90
49829;DHT22;35723;51.194;5.112;2023-02-15T06:33:14;2.90;99.90
49829;DHT22;35723;51.194;5.112;2023-02-15T06:38:44;2.90;99.90
49829;DHT22;35723;51.194;5.112;2023-02-15T06:41:09;2.80;99.90
49829;DHT22;35723;51.194;5.112;2023-02-15T06:43:35;2.90;99.90
49829;DHT22;35723;51.194;5.112;2023-02-15T06:46:01;2.70;99.90
49829;DHT22;35723;51.194;5.112;2023-02-15T06:51:49;2.60;99.90
49829;DHT22;35723;51.194;5.112;2023-02-15T06:57:54;2.90;99.90
49829;DHT22;35723;51.194;5.112;2023-02-15T07:20:51;2.90;99.90
49829;DHT22;35723;51.194;5.112;2023-02-15T07:23:19;2.90;99.90
49829;DHT22;35723;51.194;5.112;2023-02-15T07:25:45;2.90;99.90
49829;DHT22;35723;51.194;5.112;2023-02-15T07:32:20;3.00;99.90
49829;DHT22;35723;51.194;5.112;2023-02-15T07:45:01;3.10;99.90
49829;DHT22;35723;51.194;5.112;2023-02-15T08:26:20;4.30;99.90
49829;DHT22;35723;51.194;5.112;2023-02-15T08:32:22;4.60;99.90
49829;DHT22;35723;51.194;5.112;2023-02-15T08:41:57;5.00;99.90
49829;DHT22;35723;51.194;5.112;2023-02-15T08:44:23;5.20;99.90
49829;DHT22;35723;51.194;5.112;2023-02-15T08:46:49;5.30;99.90
49829;DHT22;35723;51.194;5.112;2023-02-15T08:49:20;5.50;99.90
49829;DHT22;35723;51.194;5.112;2023-02-15T08:51:47;5.70;99.90
49829;DHT22;35723;51.194;5.112;2023-02-15T08:54:15;5.80;99.90
49829;DHT22;35723;51.194;5.112;2023-02-15T08:56:42;5.90;99.90
49829;DHT22;35723;51.194;5.112;2023-02-15T08:59:16;6.10;99.90
49829;DHT22;35723;51.194;5.112;2023-02-15T09:01:42;6.20;99.90
49829;DHT22;35723;51.194;5.112;2023-02-15T09:04:08;6.30;99.90
49829;DHT22;35723;51.194;5.112;2023-02-15T09:06:35;6.50;99.90
49829;DHT22;35723;51.194;5.112;2023-02-15T09:09:00;6.60;99.90
49829;DHT22;35723;51.194;5.112;2023-02-15T09:11:30;6.80;99.90
49829;DHT22;35723;51.194;5.112;2023-02-15T09:14:00;6.90;99.90
49829;DHT22;35723;51.194;5.112;2023-02-15T09:16:29;7.00;99.90
49829;DHT22;35723;51.194;5.112;2023-02-15T09:18:56;7.20;99.90
49829;DHT22;35723;51.194;5.112;2023-02-15T09:21:36;7.30;99.90
49829;DHT22;35723;51.194;5.112;2023-02-15T09:24:04;7.40;99.90
49829;DHT22;35723;51.194;5.112;2023-02-15T09:26:32;7.50;99.90
49829;DHT22;35723;51.194;5.112;2023-02-15T09:29:00;7.60;99.90
49829;DHT22;35723;51.194;5.112;2023-02-15T09:31:28;7.70;99.90
49829;DHT22;35723;51.194;5.112;2023-02-15T09:33:55;7.90;99.90
49829;DHT22;35723;51.194;5.112;2023-02-15T09:36:28;8.00;99.90
49829;DHT22;35723;51.194;5.112;2023-02-15T09:38:56;8.10;99.90
49829;DHT22;35723;51.194;5.112;2023-02-15T09:44:33;8.30;99.90
49829;DHT22;35723;51.194;5.112;2023-02-15T09:50:06;8.50;99.90
49829;DHT22;35723;51.194;5.112;2023-02-15T09:52:53;8.60;99.90
49829;DHT22;35723;51.194;5.112;2023-02-15T09:58:32;8.90;99.90
49829;DHT22;35723;51.194;5.112;2023-02-15T10:07:29;9.30;99.90
49829;DHT22;35723;51.194;5.112;2023-02-15T10:10:23;9.30;99.90
49829;DHT22;35723;51.194;5.112;2023-02-15T10:21:19;9.60;99.90
49829;DHT22;35723;51.194;5.112;2023-02-15T10:24:15;9.70;99.90
49829;DHT22;35723;51.194;5.112;2023-02-15T10:26:49;9.90;99.90
49829;DHT22;35723;51.194;5.112;2023-02-15T10:36:57;10.20;99.90
49829;DHT22;35723;51.194;5.112;2023-02-15T10:42:11;10.20;99.90
49829;DHT22;35723;51.194;5.112;2023-02-15T10:47:45;10.20;99.90
49829;DHT22;35723;51.194;5.112;2023-02-15T10:50:48;10.10;99.90
49829;DHT22;35723;51.194;5.112;2023-02-15T10:59:38;10.20;99.90
49829;DHT22;35723;51.194;5.112;2023-02-15T11:04:58;10.30;99.90
49829;DHT22;35723;51.194;5.112;2023-02-15T11:07:33;10.40;99.90
49829;DHT22;35723;51.194;5.112;2023-02-15T11:12:48;10.60;99.90
49829;DHT22;35723;51.194;5.112;2023-02-15T11:15:31;10.70;99.90
49829;DHT22;35723;51.194;5.112;2023-02-15T11:18:21;10.70;99.90
49829;DHT22;35723;51.194;5.112;2023-02-15T11:21:02;10.80;99.90
49829;DHT22;35723;51.194;5.112;2023-02-15T11:23:30;10.90;99.90
49829;DHT22;35723;51.194;5.112;2023-02-15T11:26:00;10.90;99.90
49829;DHT22;35723;51.194;5.112;2023-02-15T11:28:37;11.10;99.90
49829;DHT22;35723;51.194;5.112;2023-02-15T11:31:21;11.20;99.90
49829;DHT22;35723;51.194;5.112;2023-02-15T11:33:58;11.30;99.90
49829;DHT22;35723;51.194;5.112;2023-02-15T11:36:29;11.40;99.90
49829;DHT22;35723;51.194;5.112;2023-02-15T11:39:04;11.50;99.90
49829;DHT22;35723;51.194;5.112;2023-02-15T11:41:38;11.50;99.90
49829;DHT22;35723;51.194;5.112;2023-02-15T11:46:32;11.60;99.90
49829;DHT22;35723;51.194;5.112;2023-02-15T11:48:58;11.70;99.90
49829;DHT22;35723;51.194;5.112;2023-02-15T11:51:24;11.70;99.90
49829;DHT22;35723;51.194;5.112;2023-02-15T11:53:52;11.80;99.90
49829;DHT22;35723;51.194;5.112;2023-02-15T11:56:27;11.80;99.90
49829;DHT22;35723;51.194;5.112;2023-02-15T11:59:03;11.90;99.90
49829;DHT22;35723;51.194;5.112;2023-02-15T12:01:40;12.10;99.90
49829;DHT22;35723;51.194;5.112;2023-02-15T12:04:38;12.10;99.90
49829;DHT22;35723;51.194;5.112;2023-02-15T12:07:24;12.10;99.90
49829;DHT22;35723;51.194;5.112;2023-02-15T12:12:32;12.10;99.90
49829;DHT22;35723;51.194;5.112;2023-02-15T12:15:01;12.10;99.90
49829;DHT22;35723;51.194;5.112;2023-02-15T12:17:29;12.10;99.90
49829;DHT22;35723;51.194;5.112;2023-02-15T12:20:03;12.20;99.90
49829;DHT22;35723;51.194;5.112;2023-02-15T12:22:30;12.30;99.90
49829;DHT22;35723;51.194;5.112;2023-02-15T12:25:00;12.30;99.90
49829;DHT22;35723;51.194;5.112;2023-02-15T12:27:30;12.40;99.90
49829;DHT22;35723;51.194;5.112;2023-02-15T12:30:06;12.30;99.90
49829;DHT22;35723;51.194;5.112;2023-02-15T12:32:50;12.40;99.90
49829;DHT22;35723;51.194;5.112;2023-02-15T12:35:31;12.50;99.90
49829;DHT22;35723;51.194;5.112;2023-02-15T12:38:03;12.40;99.90
49829;DHT22;35723;51.194;5.112;2023-02-15T12:40:31;12.40;99.90
49829;DHT22;35723;51.194;5.112;2023-02-15T12:42:58;12.40;99.90
49829;DHT22;35723;51.194;5.112;2023-02-15T12:45:33;12.40;99.90
49829;DHT22;35723;51.194;5.112;2023-02-15T12:50:45;12.40;99.90
49829;DHT22;35723;51.194;5.112;2023-02-15T12:53:30;12.50;99.90
49829;DHT22;35723;51.194;5.112;2023-02-15T12:55:59;12.60;99.90
49829;DHT22;35723;51.194;5.112;2023-02-15T12:58:26;12.60;99.90
49829;DHT22;35723;51.194;5.112;2023-02-15T13:01:15;12.60;99.90
49829;DHT22;35723;51.194;5.112;2023-02-15T13:04:03;12.60;99.90
49829;DHT22;35723;51.194;5.112;2023-02-15T13:06:33;12.60;99.90
49829;DHT22;35723;51.194;5.112;2023-02-15T13:09:20;12.60;99.90
49829;DHT22;35723;51.194;5.112;2023-02-15T13:12:26;12.70;99.90
49829;DHT22;35723;51.194;5.112;2023-02-15T13:14:54;12.60;99.90
49829;DHT22;35723;51.194;5.112;2023-02-15T13:17:40;12.60;99.90
49829;DHT22;35723;51.194;5.112;2023-02-15T13:20:18;12.70;99.90
49829;DHT22;35723;51.194;5.112;2023-02-15T13:22:49;12.60;99.90
49829;DHT22;35723;51.194;5.112;2023-02-15T13:25:22;12.60;99.90
49829;DHT22;35723;51.194;5.112;2023-02-15T13:28:10;12.60;99.90
49829;DHT22;35723;51.194;5.112;2023-02-15T13:30:44;12.60;99.90
49829;DHT22;35723;51.194;5.112;2023-02-15T13:35:59;12.60;99.90
49829;DHT22;35723;51.194;5.112;2023-02-15T13:41:04;12.80;99.90
49829;DHT22;35723;51.194;5.112;2023-02-15T13:44:03;12.80;99.90
49829;DHT22;35723;51.194;5.112;2023-02-15T13:49:23;12.80;99.90
49829;DHT22;35723;51.194;5.112;2023-02-15T13:57:22;12.60;99.90
49829;DHT22;35723;51.194;5.112;2023-02-15T14:05:55;12.80;99.90
49829;DHT22;35723;51.194;5.112;2023-02-15T14:12:00;12.80;99.90
49829;DHT22;35723;51.194;5.112;2023-02-15T14:18:03;13.00;99.90
49829;DHT22;35723;51.194;5.112;2023-02-15T14:26:49;12.90;99.90
49829;DHT22;35723;51.194;5.112;2023-02-15T14:29:47;12.80;99.90
49829;DHT22;35723;51.194;5.112;2023-02-15T14:32:34;12.90;99.90
49829;DHT22;35723;51.194;5.112;2023-02-15T14:35:13;13.00;99.90
49829;DHT22;35723;51.194;5.112;2023-02-15T14:40:50;13.00;99.90
49829;DHT22;35723;51.194;5.112;2023-02-15T14:46:16;12.90;99.90
49829;DHT22;35723;51.194;5.112;2023-02-15T14:52:05;12.80;99.90
49829;DHT22;35723;51.194;5.112;2023-02-15T14:59:46;12.70;99.90
49829;DHT22;35723;51.194;5.112;2023-02-15T15:02:47;12.70;99.90
49829;DHT22;35723;51.194;5.112;2023-02-15T15:05:37;12.70;99.90
49829;DHT22;35723;51.194;5.112;2023-02-15T15:13:58;12.90;99.90
49829;DHT22;35723;51.194;5.112;2023-02-15T15:16:47;13.00;99.90
49829;DHT22;35723;51.194;5.112;2023-02-15T15:27:42;12.90;99.90
49829;DHT22;35723;51.194;5.112;2023-02-15T15:46:26;12.70;99.90
49829;DHT22;35723;51.194;5.112;2023-02-15T15:49:06;12.70;99.90
49829;DHT22;35723;51.194;5.112;2023-02-15T15:51:33;12.60;99.90
49829;DHT22;35723;51.194;5.112;2023-02-15T15:54:01;12.70;99.90
49829;DHT22;35723;51.194;5.112;2023-02-15T15:56:31;12.70;99.90
49829;DHT22;35723;51.194;5.112;2023-02-15T15:59:01;12.70;99.90
49829;DHT22;35723;51.194;5.112;2023-02-15T16:01:39;12.70;99.90
49829;DHT22;35723;51.194;5.112;2023-02-15T16:04:12;12.70;99.90
49829;DHT22;35723;51.194;5.112;2023-02-15T16:06:39;12.60;99.90
49829;DHT22;35723;51.194;5.112;2023-02-15T16:09:13;12.50;99.90
49829;DHT22;35723;51.194;5.112;2023-02-15T16:11:41;12.60;99.90
49829;DHT22;35723;51.194;5.112;2023-02-15T16:14:13;12.50;99.90
49829;DHT22;35723;51.194;5.112;2023-02-15T16:16:39;12.40;99.90
49829;DHT22;35723;51.194;5.112;2023-02-15T16:19:06;12.40;99.90
49829;DHT22;35723;51.194;5.112;2023-02-15T16:21:36;12.40;99.90
49829;DHT22;35723;51.194;5.112;2023-02-15T16:24:18;12.40;99.90
49829;DHT22;35723;51.194;5.112;2023-02-15T16:27:11;12.40;99.90
49829;DHT22;35723;51.194;5.112;2023-02-15T16:29:38;12.40;99.90
49829;DHT22;35723;51.194;5.112;2023-02-15T16:34:54;12.20;99.90
49829;DHT22;35723;51.194;5.112;2023-02-15T16:37:21;12.10;99.90
49829;DHT22;35723;51.194;5.112;2023-02-15T16:39:49;11.90;99.90
49829;DHT22;35723;51.194;5.112;2023-02-15T16:42:16;11.90;99.90
49829;DHT22;35723;51.194;5.112;2023-02-15T16:44:45;11.80;99.90
49829;DHT22;35723;51.194;5.112;2023-02-15T16:47:28;11.70;99.90
49829;DHT22;35723;51.194;5.112;2023-02-15T16:49:59;11.70;99.90
49829;DHT22;35723;51.194;5.112;2023-02-15T16:52:26;11.70;99.90
49829;DHT22;35723;51.194;5.112;2023-02-15T16:54:58;11.60;99.90
49829;DHT22;35723;51.194;5.112;2023-02-15T16:57:28;11.70;99.90
49829;DHT22;35723;51.194;5.112;2023-02-15T16:59:56;11.60;99.90
49829;DHT22;35723;51.194;5.112;2023-02-15T17:02:28;11.50;99.90
49829;DHT22;35723;51.194;5.112;2023-02-15T17:07:43;11.40;99.90
49829;DHT22;35723;51.194;5.112;2023-02-15T17:10:32;11.30;99.90
49829;DHT22;35723;51.194;5.112;2023-02-15T17:13:17;11.20;99.90
49829;DHT22;35723;51.194;5.112;2023-02-15T17:16:08;11.20;99.90
49829;DHT22;35723;51.194;5.112;2023-02-15T17:18:38;11.00;99.90
49829;DHT22;35723;51.194;5.112;2023-02-15T17:21:18;10.90;99.90
49829;DHT22;35723;51.194;5.112;2023-02-15T17:23:47;10.80;99.90
49829;DHT22;35723;51.194;5.112;2023-02-15T17:26:20;10.80;99.90
49829;DHT22;35723;51.194;5.112;2023-02-15T17:28:51;10.80;99.90
49829;DHT22;35723;51.194;5.112;2023-02-15T17:31:19;10.80;99.90
49829;DHT22;35723;51.194;5.112;2023-02-15T17:33:46;10.70;99.90
49829;DHT22;35723;51.194;5.112;2023-02-15T17:36:14;10.80;99.90
49829;DHT22;35723;51.194;5.112;2023-02-15T17:39:01;10.80;99.90
49829;DHT22;35723;51.194;5.112;2023-02-15T17:41:30;10.80;99.90
49829;DHT22;35723;51.194;5.112;2023-02-15T17:43:57;10.80;99.90
49829;DHT22;35723;51.194;5.112;2023-02-15T17:46:23;10.80;99.90
49829;DHT22;35723;51.194;5.112;2023-02-15T17:48:51;10.70;99.90
49829;DHT22;35723;51.194;5.112;2023-02-15T17:51:18;10.60;99.90
49829;DHT22;35723;51.194;5.112;2023-02-15T17:53:44;10.50;99.90
49829;DHT22;35723;51.194;5.112;2023-02-15T17:56:33;10.40;99.90
49829;DHT22;35723;51.194;5.112;2023-02-15T17:58:59;10.40;99.90
49829;DHT22;35723;51.194;5.112;2023-02-15T18:01:25;10.30;99.90
49829;DHT22;35723;51.194;5.112;2023-02-15T18:04:11;10.30;99.90
49829;DHT22;35723;51.194;5.112;2023-02-15T18:06:57;10.30;99.90
49829;DHT22;35723;51.194;5.112;2023-02-15T18:09:41;10.30;99.90
49829;DHT22;35723;51.194;5.112;2023-02-15T18:12:33;10.30;99.90
49829;DHT22;35723;51.194;5.112;2023-02-15T18:15:01;10.20;99.90
49829;DHT22;35723;51.194;5.112;2023-02-15T18:17:43;10.10;99.90
49829;DHT22;35723;51.194;5.112;2023-02-15T18:20:25;10.20;99.90
49829;DHT22;35723;51.194;5.112;2023-02-15T18:22:53;10.10;99.90
49829;DHT22;35723;51.194;5.112;2023-02-15T18:25:20;10.10;99.90
49829;DHT22;35723;51.194;5.112;2023-02-15T18:27:48;10.00;99.90
49829;DHT22;35723;51.194;5.112;2023-02-15T18:30:15;10.00;99.90
49829;DHT22;35723;51.194;5.112;2023-02-15T18:32:42;10.00;99.90
49829;DHT22;35723;51.194;5.112;2023-02-15T18:35:17;10.10;99.90
49829;DHT22;35723;51.194;5.112;2023-02-15T18:37:43;10.20;99.90
49829;DHT22;35723;51.194;5.112;2023-02-15T18:40:18;10.20;99.90
49829;DHT22;35723;51.194;5.112;2023-02-15T18:42:44;10.30;99.90
49829;DHT22;35723;51.194;5.112;2023-02-15T18:45:18;10.30;99.90
49829;DHT22;35723;51.194;5.112;2023-02-15T18:47:45;10.40;99.90
49829;DHT22;35723;51.194;5.112;2023-02-15T18:50:12;10.30;99.90
49829;DHT22;35723;51.194;5.112;2023-02-15T18:52:38;10.30;99.90
49829;DHT22;35723;51.194;5.112;2023-02-15T18:57:43;10.40;99.90
49829;DHT22;35723;51.194;5.112;2023-02-15T19:00:17;10.40;99.90
49829;DHT22;35723;51.194;5.112;2023-02-15T19:02:43;10.30;99.90
49829;DHT22;35723;51.194;5.112;2023-02-15T19:05:09;10.30;99.90
49829;DHT22;35723;51.194;5.112;2023-02-15T19:07:35;10.30;99.90
49829;DHT22;35723;51.194;5.112;2023-02-15T19:10:05;10.20;99.90
49829;DHT22;35723;51.194;5.112;2023-02-15T19:12:32;10.10;99.90
49829;DHT22;35723;51.194;5.112;2023-02-15T19:14:58;10.10;99.90
49829;DHT22;35723;51.194;5.112;2023-02-15T19:17:24;10.00;99.90
49829;DHT22;35723;51.194;5.112;2023-02-15T19:19:51;10.00;99.90
49829;DHT22;35723;51.194;5.112;2023-02-15T19:22:29;9.90;99.90
49829;DHT22;35723;51.194;5.112;2023-02-15T19:24:58;9.90;99.90
49829;DHT22;35723;51.194;5.112;2023-02-15T19:27:32;9.80;99.90
49829;DHT22;35723;51.194;5.112;2023-02-15T19:30:32;9.80;99.90
49829;DHT22;35723;51.194;5.112;2023-02-15T19:32:59;9.60;99.90
49829;DHT22;35723;51.194;5.112;2023-02-15T19:35:28;9.50;99.90
49829;DHT22;35723;51.194;5.112;2023-02-15T19:37:58;9.50;99.90
49829;DHT22;35723;51.194;5.112;2023-02-15T19:40:29;9.40;99.90
49829;DHT22;35723;51.194;5.112;2023-02-15T19:42:56;9.40;99.90
49829;DHT22;35723;51.194;5.112;2023-02-15T19:45:24;9.30;99.90
49829;DHT22;35723;51.194;5.112;2023-02-15T19:47:50;9.40;99.90
49829;DHT22;35723;51.194;5.112;2023-02-15T19:50:27;9.40;99.90
49829;DHT22;35723;51.194;5.112;2023-02-15T19:52:53;9.40;99.90
49829;DHT22;35723;51.194;5.112;2023-02-15T19:55:30;9.30;99.90
49829;DHT22;35723;51.194;5.112;2023-02-15T19:57:57;9.30;99.90
49829;DHT22;35723;51.194;5.112;2023-02-15T20:00:31;9.30;99.90
49829;DHT22;35723;51.194;5.112;2023-02-15T20:02:58;9.30;99.90
49829;DHT22;35723;51.194;5.112;2023-02-15T20:05:29;9.20;99.90
49829;DHT22;35723;51.194;5.112;2023-02-15T20:07:55;9.20;99.90
49829;DHT22;35723;51.194;5.112;2023-02-15T20:10:23;9.20;99.90
49829;DHT22;35723;51.194;5.112;2023-02-15T20:12:50;9.20;99.90
49829;DHT22;35723;51.194;5.112;2023-02-15T20:15:21;9.10;99.90
49829;DHT22;35723;51.194;5.112;2023-02-15T20:17:48;9.10;99.90
49829;DHT22;35723;51.194;5.112;2023-02-15T20:20:14;9.10;99.90
49829;DHT22;35723;51.194;5.112;2023-02-15T20:22:41;9.10;99.90
49829;DHT22;35723;51.194;5.112;2023-02-15T20:25:35;9.10;99.90
49829;DHT22;35723;51.194;5.112;2023-02-15T20:28:00;9.10;99.90
49829;DHT22;35723;51.194;5.112;2023-02-15T20:30:29;9.00;99.90
49829;DHT22;35723;51.194;5.112;2023-02-15T20:32:55;9.00;99.90
49829;DHT22;35723;51.194;5.112;2023-02-15T20:35:22;9.00;99.90
49829;DHT22;35723;51.194;5.112;2023-02-15T20:37:56;9.00;99.90
49829;DHT22;35723;51.194;5.112;2023-02-15T20:40:26;8.90;99.90
49829;DHT22;35723;51.194;5.112;2023-02-15T20:42:53;8.80;99.90
49829;DHT22;35723;51.194;5.112;2023-02-15T20:45:28;8.80;99.90
49829;DHT22;35723;51.194;5.112;2023-02-15T20:47:55;8.80;99.90
49829;DHT22;35723;51.194;5.112;2023-02-15T20:50:26;8.70;99.90
49829;DHT22;35723;51.194;5.112;2023-02-15T20:52:54;8.70;99.90
49829;DHT22;35723;51.194;5.112;2023-02-15T20:55:22;8.70;99.90
49829;DHT22;35723;51.194;5.112;2023-02-15T20:57:48;8.60;99.90
49829;DHT22;35723;51.194;5.112;2023-02-15T21:00:19;8.60;99.90
49829;DHT22;35723;51.194;5.112;2023-02-15T21:02:55;8.50;99.90
49829;DHT22;35723;51.194;5.112;2023-02-15T21:05:28;8.60;99.90
49829;DHT22;35723;51.194;5.112;2023-02-15T21:07:55;8.70;99.90
49829;DHT22;35723;51.194;5.112;2023-02-15T21:10:26;8.80;99.90